Time;durP1;ratioP1;P1;durP2;ratioP2;P2;SDS_P1;SDS_P2;PMS_P1;PMS_P2;Temp;Humidity;BMP_temperature;BMP_pressure;BME280_temperature;BME280_humidity;BME280_pressure;Samples;Min_cycle;Max_cycle;Signal;HPM_P1;HPM_P2
2022/06/14 00:00:53;;;;;;;0.13;0.13;;;;;;;;;;5087233;28;20032;-83
2022/06/14 00:03:25;;;;;;;0.10;0.10;;;;;;;;;;5108764;28;20360;-78
2022/06/14 00:05:51;;;;;;;0.17;0.17;;;;;;;;;;5108287;28;20460;-83
2022/06/14 00:08:19;;;;;;;1.25;0.85;;;;;;;;;;5115105;28;20023;-82
2022/06/14 00:10:45;;;;;;;0.50;0.13;;;;;;;;;;5098381;28;20360;-82
2022/06/14 00:13:11;;;;;;;0.40;0.35;;;;;;;;;;5097709;28;20031;-82
2022/06/14 00:15:37;;;;;;;0.55;0.55;;;;;;;;;;5110896;28;20023;-81
2022/06/14 00:18:02;;;;;;;0.10;0.10;;;;;;;;;;5076711;28;20024;-79
2022/06/14 00:20:28;;;;;;;0.15;0.15;;;;;;;;;;5110819;28;20047;-83
2022/06/14 00:22:53;;;;;;;0.45;0.45;;;;;;;;;;5108344;28;20024;-83
2022/06/14 00:25:30;;;;;;;0.17;0.17;;;;;;;;;;5109960;28;20020;-81
2022/06/14 00:27:56;;;;;;;0.08;0.08;;;;;;;;;;5093501;28;20024;-83
2022/06/14 00:30:25;;;;;;;0.47;0.47;;;;;;;;;;5110653;28;20043;-84
2022/06/14 00:32:51;;;;;;;0.60;0.47;;;;;;;;;;5078806;28;20028;-83
2022/06/14 00:35:16;;;;;;;0.85;0.77;;;;;;;;;;5106257;28;20100;-83
2022/06/14 00:37:44;;;;;;;3.55;0.57;;;;;;;;;;5110250;28;20034;-85
2022/06/14 00:40:11;;;;;;;0.68;0.40;;;;;;;;;;5114400;28;20422;-84
2022/06/14 00:42:39;;;;;;;0.30;0.30;;;;;;;;;;5097438;28;20020;-82
2022/06/14 00:45:06;;;;;;;1.60;1.05;;;;;;;;;;5091531;28;20028;-83
2022/06/14 00:47:46;;;;;;;0.30;0.30;;;;;;;;;;5091564;28;20024;-81
2022/06/14 00:50:18;;;;;;;2.25;0.32;;;;;;;;;;5098069;28;20012;-80
2022/06/14 00:52:59;;;;;;;0.30;0.30;;;;;;;;;;5079104;28;20036;-82
2022/06/14 00:55:29;;;;;;;0.30;0.30;;;;;;;;;;5091095;28;20036;-80
2022/06/14 00:58:01;;;;;;;0.60;0.22;;;;;;;;;;5085126;28;20028;-82
2022/06/14 01:00:32;;;;;;;1.35;1.25;;;;;;;;;;5096006;28;20174;-83
2022/06/14 01:03:00;;;;;;;2.05;0.60;;;;;;;;;;5095487;28;20035;-82
2022/06/14 01:06:05;;;;;;;0.55;0.35;;;;;;;;;;5096818;28;20035;-83
2022/06/14 01:08:20;;;;;;;0.82;0.65;;;;;;;;;;5085635;28;20028;-83
2022/06/14 01:10:48;;;;;;;0.47;0.47;;;;;;;;;;5090733;28;20066;-82
2022/06/14 01:13:16;;;;;;;0.35;0.22;;;;;;;;;;5091380;28;20127;-83
2022/06/14 01:15:42;;;;;;;0.65;0.47;;;;;;;;;;5081019;28;20028;-81
2022/06/14 01:18:11;;;;;;;7.18;0.95;;;;;;;;;;5108938;28;20023;-83
2022/06/14 01:20:37;;;;;;;0.05;0.05;;;;;;;;;;5096066;28;20058;-82
2022/06/14 01:23:03;;;;;;;0.10;0.10;;;;;;;;;;5083643;28;20068;-83
2022/06/14 01:25:31;;;;;;;0.70;0.32;;;;;;;;;;5096344;28;20071;-79
2022/06/14 01:28:00;;;;;;;0.20;0.20;;;;;;;;;;5089409;28;20091;-83
2022/06/14 01:30:30;;;;;;;1.00;0.73;;;;;;;;;;5094173;28;20032;-83
2022/06/14 01:33:06;;;;;;;0.10;0.10;;;;;;;;;;5089680;28;20070;-80
2022/06/14 01:35:37;;;;;;;0.10;0.10;;;;;;;;;;5103822;28;20016;-81
2022/06/14 01:38:14;;;;;;;0.05;0.05;;;;;;;;;;5080977;28;20111;-82
2022/06/14 01:41:07;;;;;;;0.00;0.00;;;;;;;;;;5100766;28;20027;-83
2022/06/14 01:43:41;;;;;;;0.65;0.65;;;;;;;;;;5097563;28;20430;-83
2022/06/14 01:46:18;;;;;;;0.63;0.63;;;;;;;;;;5102154;28;20057;-83
2022/06/14 01:52:02;;;;;;;0.15;0.10;;;;;;;;;;5105900;28;20042;-81
2022/06/14 01:54:43;;;;;;;1.30;1.02;;;;;;;;;;5072802;28;20024;-82
2022/06/14 01:57:34;;;;;;;0.73;0.60;;;;;;;;;;5091368;28;20083;-82
2022/06/14 02:00:19;;;;;;;0.45;0.45;;;;;;;;;;5052737;28;20461;-79
2022/06/14 02:04:36;;;;;;;0.13;0.13;;;;;;;;;;5087781;28;20657;-82
2022/06/14 02:05:43;;;;;;;3.00;0.68;;;;;;;;;;5103791;28;20028;-80
2022/06/14 02:08:18;;;;;;;1.13;0.77;;;;;;;;;;5093992;28;20046;-83
2022/06/14 02:11:06;;;;;;;0.50;0.28;;;;;;;;;;5094882;28;20031;-83
2022/06/14 02:13:46;;;;;;;0.17;0.17;;;;;;;;;;5096978;28;20012;-85
2022/06/14 02:16:27;;;;;;;0.20;0.20;;;;;;;;;;5095944;28;20024;-83
2022/06/14 02:19:05;;;;;;;0.10;0.10;;;;;;;;;;5095144;28;20024;-84
2022/06/14 02:21:49;;;;;;;0.32;0.32;;;;;;;;;;5100397;28;20078;-84
2022/06/14 02:24:19;;;;;;;0.52;0.52;;;;;;;;;;5084229;28;20655;-84
2022/06/14 02:26:49;;;;;;;0.65;0.50;;;;;;;;;;5099886;28;20512;-83
2022/06/14 02:29:25;;;;;;;1.75;0.55;;;;;;;;;;5099659;28;20023;-83
2022/06/14 02:31:58;;;;;;;0.20;0.20;;;;;;;;;;5105558;28;20042;-81
2022/06/14 02:34:34;;;;;;;;;;;;;;;;;;5085507;28;20540;-83
2022/06/14 02:37:01;;;;;;;0.10;0.10;;;;;;;;;;5092146;28;20261;-82
2022/06/14 02:39:35;;;;;;;0.10;0.10;;;;;;;;;;5099310;28;20151;-80
2022/06/14 02:42:04;;;;;;;0.55;0.55;;;;;;;;;;5098310;28;20051;-79
2022/06/14 02:44:44;;;;;;;0.50;0.30;;;;;;;;;;5113694;28;20062;-83
2022/06/14 02:47:24;;;;;;;3.25;0.90;;;;;;;;;;5089232;28;20020;-81
2022/06/14 02:49:59;;;;;;;4.75;0.82;;;;;;;;;;5101610;28;20530;-82
2022/06/14 02:52:30;;;;;;;1.48;0.70;;;;;;;;;;5116473;28;20452;-80
2022/06/14 02:55:02;;;;;;;3.30;1.23;;;;;;;;;;5097004;28;20424;-81
2022/06/14 02:57:49;;;;;;;0.47;0.30;;;;;;;;;;5075058;28;20023;-83
2022/06/14 03:00:18;;;;;;;0.85;0.55;;;;;;;;;;5078905;28;20028;-82
2022/06/14 03:02:59;;;;;;;1.10;0.35;;;;;;;;;;5072488;28;20350;-83
2022/06/14 03:05:36;;;;;;;0.40;0.40;;;;;;;;;;5114728;28;20355;-81
2022/06/14 03:08:13;;;;;;;0.47;0.47;;;;;;;;;;5114089;28;20023;-83
2022/06/14 03:11:02;;;;;;;0.10;0.10;;;;;;;;;;5099094;28;20024;-82
2022/06/14 03:13:35;;;;;;;0.65;0.52;;;;;;;;;;5106968;28;20028;-83
2022/06/14 03:16:12;;;;;;;0.30;0.30;;;;;;;;;;5095856;28;20030;-83
2022/06/14 03:19:11;;;;;;;0.30;0.30;;;;;;;;;;5071351;28;20036;-83
2022/06/14 03:21:48;;;;;;;0.43;0.43;;;;;;;;;;5113563;28;20033;-84
2022/06/14 03:24:25;;;;;;;0.47;0.47;;;;;;;;;;5115264;28;20456;-83
2022/06/14 03:27:09;;;;;;;1.25;0.60;;;;;;;;;;5078450;28;20030;-83
2022/06/14 03:29:49;;;;;;;0.50;0.40;;;;;;;;;;5095580;28;20456;-82
2022/06/14 03:32:19;;;;;;;0.88;0.60;;;;;;;;;;5091209;28;20185;-81
2022/06/14 03:34:50;;;;;;;0.50;0.50;;;;;;;;;;5080051;28;20027;-83
2022/06/14 03:37:16;;;;;;;0.30;0.30;;;;;;;;;;5114740;28;20043;-83
2022/06/14 03:39:45;;;;;;;0.75;0.57;;;;;;;;;;5078910;28;20043;-83
2022/06/14 03:42:11;;;;;;;1.08;1.02;;;;;;;;;;5095495;28;20020;-83
2022/06/14 03:44:38;;;;;;;0.43;0.40;;;;;;;;;;5094086;28;20120;-83
2022/06/14 03:47:09;;;;;;;0.13;0.10;;;;;;;;;;5075951;28;20330;-81
2022/06/14 03:49:37;;;;;;;0.90;0.73;;;;;;;;;;5109847;28;20445;-81
2022/06/14 03:52:08;;;;;;;0.38;0.30;;;;;;;;;;5087384;28;20410;-84
2022/06/14 03:54:43;;;;;;;0.60;0.60;;;;;;;;;;5094815;28;20070;-79
2022/06/14 03:57:40;;;;;;;0.63;0.60;;;;;;;;;;5072594;28;20352;-80
2022/06/14 04:00:21;;;;;;;0.22;0.22;;;;;;;;;;5098374;28;20076;-82
2022/06/14 04:03:03;;;;;;;1.20;0.60;;;;;;;;;;5095894;28;20492;-80
2022/06/14 04:05:31;;;;;;;0.82;0.65;;;;;;;;;;5077957;28;20028;-83
2022/06/14 04:08:10;;;;;;;0.30;0.30;;;;;;;;;;5113712;28;20111;-82
2022/06/14 04:10:41;;;;;;;11.73;0.68;;;;;;;;;;5093092;28;20469;-80
2022/06/14 04:13:38;;;;;;;0.25;0.15;;;;;;;;;;5094118;28;20351;-83
2022/06/14 04:16:26;;;;;;;0.90;0.85;;;;;;;;;;5107490;28;20107;-83
2022/06/14 04:19:13;;;;;;;0.70;0.70;;;;;;;;;;5093750;28;20024;-85
2022/06/14 04:21:51;;;;;;;0.60;0.47;;;;;;;;;;5113118;28;20039;-85
2022/06/14 04:24:47;;;;;;;0.98;0.45;;;;;;;;;;5102925;28;20084;-84
2022/06/14 04:27:39;;;;;;;0.17;0.17;;;;;;;;;;5102626;28;20380;-85
2022/06/14 04:30:13;;;;;;;0.30;0.20;;;;;;;;;;5102140;28;20381;-84
2022/06/14 04:32:54;;;;;;;0.57;0.57;;;;;;;;;;5094876;28;20130;-85
2022/06/14 04:35:30;;;;;;;2.05;0.52;;;;;;;;;;5100064;28;20338;-81
2022/06/14 04:38:02;;;;;;;3.67;0.60;;;;;;;;;;5093147;28;20099;-82
2022/06/14 04:40:40;;;;;;;0.40;0.35;;;;;;;;;;5111274;28;20047;-78
2022/06/14 04:43:12;;;;;;;0.35;0.35;;;;;;;;;;5098315;28;20027;-81
2022/06/14 04:45:46;;;;;;;2.75;0.95;;;;;;;;;;5078241;28;20114;-81
2022/06/14 04:48:45;;;;;;;0.55;0.43;;;;;;;;;;5100273;28;20038;-83
2022/06/14 04:51:14;;;;;;;1.02;0.98;;;;;;;;;;5114704;28;20111;-79
2022/06/14 04:53:51;;;;;;;0.63;0.63;;;;;;;;;;5114520;28;20023;-83
2022/06/14 04:56:23;;;;;;;0.65;0.60;;;;;;;;;;5095539;28;20023;-83
2022/06/14 04:58:59;;;;;;;0.85;0.82;;;;;;;;;;5097311;28;20020;-82
2022/06/14 05:01:32;;;;;;;0.77;0.77;;;;;;;;;;5078334;28;20063;-85
2022/06/14 05:04:06;;;;;;;;;;;;;;;;;;5097528;28;20027;-80
2022/06/14 05:06:40;;;;;;;0.40;0.40;;;;;;;;;;5114694;28;19951;-84
2022/06/14 05:09:12;;;;;;;1.95;1.02;;;;;;;;;;5095541;28;20031;-76
2022/06/14 05:11:52;;;;;;;0.65;0.65;;;;;;;;;;5096599;28;20038;-86
2022/06/14 05:14:25;;;;;;;1.20;0.30;;;;;;;;;;5110864;28;20047;-86
2022/06/14 05:16:59;;;;;;;3.47;1.27;;;;;;;;;;5095410;28;20034;-85
2022/06/14 05:19:33;;;;;;;0.22;0.22;;;;;;;;;;5096198;28;20509;-85
2022/06/14 05:22:04;;;;;;;0.98;0.80;;;;;;;;;;5107181;28;20457;-81
2022/06/14 05:24:30;;;;;;;2.83;1.65;;;;;;;;;;5110636;28;20027;-84
2022/06/14 05:27:43;;;;;;;1.08;0.38;;;;;;;;;;5090218;28;20031;-84
2022/06/14 05:30:09;;;;;;;;;;;;;;;;;;5106158;28;20040;-83
2022/06/14 05:32:55;;;;;;;1.40;1.02;;;;;;;;;;5111527;28;20363;-82
2022/06/14 05:35:30;;;;;;;0.10;0.10;;;;;;;;;;5095822;28;20108;-86
2022/06/14 05:38:17;;;;;;;0.55;0.40;;;;;;;;;;5099053;28;20059;-83
2022/06/14 05:40:50;;;;;;;0.30;0.30;;;;;;;;;;5104210;28;20357;-84
2022/06/14 05:43:39;;;;;;;1.35;1.23;;;;;;;;;;5089744;28;20065;-84
2022/06/14 05:46:10;;;;;;;0.50;0.50;;;;;;;;;;5097516;28;20452;-85
2022/06/14 05:48:56;;;;;;;0.43;0.43;;;;;;;;;;5113509;28;20023;-84
2022/06/14 05:51:27;;;;;;;0.95;0.52;;;;;;;;;;5083174;28;20884;-85
2022/06/14 05:54:11;;;;;;;2.60;1.45;;;;;;;;;;5076843;28;20028;-79
2022/06/14 05:56:48;;;;;;;3.60;1.48;;;;;;;;;;5101320;28;20106;-82
2022/06/14 05:59:34;;;;;;;9.90;0.50;;;;;;;;;;5095581;28;20466;-82
2022/06/14 06:02:39;;;;;;;0.30;0.30;;;;;;;;;;5118380;28;20024;-84
2022/06/14 06:05:11;;;;;;;0.38;0.32;;;;;;;;;;5010666;28;20381;-84
2022/06/14 06:07:40;;;;;;;0.47;0.47;;;;;;;;;;5111098;28;20400;-82
2022/06/14 06:10:13;;;;;;;1.52;1.38;;;;;;;;;;5093037;28;20399;-83
2022/06/14 06:12:41;;;;;;;1.10;0.60;;;;;;;;;;5078783;28;20047;-81
2022/06/14 06:15:29;;;;;;;1.05;0.80;;;;;;;;;;5091800;28;20430;-84
2022/06/14 06:17:59;;;;;;;0.43;0.20;;;;;;;;;;5090463;28;20052;-82
2022/06/14 06:20:49;;;;;;;0.20;0.13;;;;;;;;;;5093120;28;20020;-83
2022/06/14 06:23:18;;;;;;;3.30;0.52;;;;;;;;;;5111202;28;20143;-85
2022/06/14 06:25:50;;;;;;;0.30;0.30;;;;;;;;;;5104570;28;20032;-85
2022/06/14 06:28:31;;;;;;;2.92;1.15;;;;;;;;;;5112043;28;20080;-85
2022/06/14 06:31:00;;;;;;;1.70;0.93;;;;;;;;;;5087381;28;20039;-83
2022/06/14 06:33:27;;;;;;;2.85;0.82;;;;;;;;;;5112150;28;20035;-83
2022/06/14 06:36:03;;;;;;;6.43;0.45;;;;;;;;;;5096311;28;20023;-83
2022/06/14 06:38:53;;;;;;;2.15;0.80;;;;;;;;;;5080159;28;20023;-85
2022/06/14 06:44:33;;;;;;;0.50;0.38;;;;;;;;;;5100966;28;20344;-84
2022/06/14 06:47:01;;;;;;;0.93;0.75;;;;;;;;;;5103356;28;20465;-83
2022/06/14 06:49:37;;;;;;;1.33;0.52;;;;;;;;;;5098924;28;20340;-86
2022/06/14 06:52:09;;;;;;;1.95;1.17;;;;;;;;;;5103315;28;20451;-84
2022/06/14 06:54:43;;;;;;;1.67;0.35;;;;;;;;;;5072583;28;20063;-84
2022/06/14 06:57:14;;;;;;;0.28;0.28;;;;;;;;;;5092737;28;20543;-87
2022/06/14 06:59:42;;;;;;;0.10;0.10;;;;;;;;;;5089607;28;20088;-85
2022/06/14 07:02:24;;;;;;;1.20;0.70;;;;;;;;;;5081027;28;20019;-84
2022/06/14 07:05:06;;;;;;;0.20;0.20;;;;;;;;;;5095152;28;20047;-83
2022/06/14 07:07:52;;;;;;;3.88;0.88;;;;;;;;;;5088931;28;20032;-83
2022/06/14 07:10:21;;;;;;;0.10;0.10;;;;;;;;;;5107646;28;20020;-83
2022/06/14 07:12:54;;;;;;;1.05;0.45;;;;;;;;;;5107753;28;20057;-83
2022/06/14 07:15:34;;;;;;;0.30;0.28;;;;;;;;;;5098989;28;20106;-81
2022/06/14 07:18:17;;;;;;;3.97;0.82;;;;;;;;;;5113804;28;20059;-82
2022/06/14 07:21:01;;;;;;;0.88;0.50;;;;;;;;;;5115392;28;20057;-83
2022/06/14 07:23:49;;;;;;;0.47;0.47;;;;;;;;;;5100340;28;20040;-80
2022/06/14 07:26:20;;;;;;;0.63;0.63;;;;;;;;;;5080878;28;20111;-82
2022/06/14 07:29:15;;;;;;;0.22;0.22;;;;;;;;;;5093594;28;20416;-84
2022/06/14 07:31:49;;;;;;;0.65;0.47;;;;;;;;;;5090652;28;20027;-82
2022/06/14 07:34:15;;;;;;;2.83;0.40;;;;;;;;;;5088728;28;20028;-83
2022/06/14 07:36:50;;;;;;;0.47;0.45;;;;;;;;;;5112263;28;20028;-85
2022/06/14 07:39:15;;;;;;;0.98;0.75;;;;;;;;;;5104344;28;20042;-83
2022/06/14 07:41:50;;;;;;;0.10;0.10;;;;;;;;;;5110855;28;20576;-84
2022/06/14 07:44:36;;;;;;;3.08;0.73;;;;;;;;;;5113499;28;20500;-82
2022/06/14 07:47:18;;;;;;;1.25;0.30;;;;;;;;;;5095395;28;20030;-84
2022/06/14 07:49:46;;;;;;;1.60;0.75;;;;;;;;;;5114091;28;20036;-87
2022/06/14 07:52:21;;;;;;;1.17;0.63;;;;;;;;;;5109010;28;20032;-85
2022/06/14 07:54:51;;;;;;;0.77;0.68;;;;;;;;;;5060367;28;20121;-84
2022/06/14 07:57:28;;;;;;;0.40;0.40;;;;;;;;;;5096170;28;20094;-87
2022/06/14 08:02:54;;;;;;;3.50;1.17;;;;;;;;;;5093720;28;20033;-77
2022/06/14 08:05:24;;;;;;;0.75;0.45;;;;;;;;;;5107511;28;20023;-85
2022/06/14 08:07:51;;;;;;;1.42;0.70;;;;;;;;;;5082606;28;20020;-84
2022/06/14 08:10:21;;;;;;;0.50;0.32;;;;;;;;;;5098468;28;20351;-86
2022/06/14 08:12:49;;;;;;;0.95;0.60;;;;;;;;;;5111036;28;20027;-86
2022/06/14 08:15:20;;;;;;;8.40;1.58;;;;;;;;;;5116086;28;20065;-83
2022/06/14 08:18:04;;;;;;;0.63;0.45;;;;;;;;;;5076968;28;20024;-83
2022/06/14 08:20:37;;;;;;;2.85;0.82;;;;;;;;;;5094681;28;20482;-85
2022/06/14 08:23:07;;;;;;;0.60;0.50;;;;;;;;;;5114854;28;20119;-86
2022/06/14 08:25:37;;;;;;;0.20;0.20;;;;;;;;;;5072955;28;20115;-84
2022/06/14 08:28:15;;;;;;;0.22;0.22;;;;;;;;;;5113764;28;20058;-84
2022/06/14 08:30:56;;;;;;;1.50;0.35;;;;;;;;;;5085762;28;20027;-84
2022/06/14 08:33:40;;;;;;;0.75;0.75;;;;;;;;;;5074574;28;20399;-84
2022/06/14 08:36:08;;;;;;;1.13;0.40;;;;;;;;;;5113376;28;20027;-83
2022/06/14 08:38:46;;;;;;;0.43;0.43;;;;;;;;;;5083676;28;20096;-85
2022/06/14 08:41:20;;;;;;;0.88;0.73;;;;;;;;;;5097203;28;20514;-84
2022/06/14 08:43:50;;;;;;;1.75;0.35;;;;;;;;;;5111434;28;20027;-82
2022/06/14 08:46:31;;;;;;;4.97;1.33;;;;;;;;;;5095220;28;20033;-85
2022/06/14 08:49:27;;;;;;;1.23;0.95;;;;;;;;;;5095594;28;20165;-85
2022/06/14 08:52:11;;;;;;;0.25;0.22;;;;;;;;;;5098926;28;20032;-84
2022/06/14 08:54:49;;;;;;;0.40;0.40;;;;;;;;;;5097270;28;20020;-85
2022/06/14 08:57:34;;;;;;;0.93;0.80;;;;;;;;;;5114357;28;20036;-85
2022/06/14 09:00:05;;;;;;;3.97;0.63;;;;;;;;;;5091747;28;20032;-84
2022/06/14 09:02:50;;;;;;;1.25;1.00;;;;;;;;;;5104039;28;20024;-85
2022/06/14 09:05:40;;;;;;;0.80;0.65;;;;;;;;;;5110949;28;20023;-85
2022/06/14 09:08:46;;;;;;;10.50;0.95;;;;;;;;;;5112889;28;20379;-83
2022/06/14 09:11:23;;;;;;;0.95;0.60;;;;;;;;;;5113847;28;20032;-81
2022/06/14 09:14:07;;;;;;;0.50;0.50;;;;;;;;;;5106423;28;20035;-86
2022/06/14 09:16:50;;;;;;;0.63;0.60;;;;;;;;;;5114012;28;20035;-85
2022/06/14 09:19:27;;;;;;;0.45;0.30;;;;;;;;;;5114037;28;20081;-85
2022/06/14 09:22:05;;;;;;;0.98;0.93;;;;;;;;;;5114344;28;20436;-86
2022/06/14 09:24:39;;;;;;;0.85;0.55;;;;;;;;;;5111299;28;20088;-83
2022/06/14 09:27:38;;;;;;;0.60;0.60;;;;;;;;;;5097409;28;20049;-86
2022/06/14 09:30:09;;;;;;;2.33;0.93;;;;;;;;;;5072059;28;20020;-82
2022/06/14 09:35:49;;;;;;;2.63;1.25;;;;;;;;;;5050991;28;20025;-82
2022/06/14 09:38:35;;;;;;;0.85;0.68;;;;;;;;;;5082138;28;20097;-85
2022/06/14 09:41:03;;;;;;;11.52;1.20;;;;;;;;;;5112857;28;20032;-86
2022/06/14 09:43:56;;;;;;;1.38;0.77;;;;;;;;;;5112726;28;20031;-84
2022/06/14 09:46:42;;;;;;;2.13;0.47;;;;;;;;;;5107174;28;20077;-83
2022/06/14 09:49:18;;;;;;;0.52;0.50;;;;;;;;;;5112238;28;20095;-85
2022/06/14 09:52:02;;;;;;;0.38;0.30;;;;;;;;;;5093475;28;20110;-86
2022/06/14 09:54:43;;;;;;;1.45;0.65;;;;;;;;;;5112245;28;20035;-86
2022/06/14 09:57:30;;;;;;;2.40;1.13;;;;;;;;;;5108462;28;20024;-78
2022/06/14 10:00:22;;;;;;;1.42;1.08;;;;;;;;;;5107955;28;20032;-83
2022/06/14 10:03:05;;;;;;;0.30;0.30;;;;;;;;;;5106270;28;20027;-82
2022/06/14 10:05:40;;;;;;;0.30;0.30;;;;;;;;;;5095973;28;20418;-83
2022/06/14 10:08:26;;;;;;;0.30;0.30;;;;;;;;;;5110364;28;20022;-83
2022/06/14 10:10:59;;;;;;;1.13;0.60;;;;;;;;;;5110174;28;20031;-82
2022/06/14 10:13:25;;;;;;;0.52;0.52;;;;;;;;;;5114595;28;20024;-83
2022/06/14 10:16:22;;;;;;;1.77;0.40;;;;;;;;;;5114342;28;20035;-84
2022/06/14 10:19:09;;;;;;;4.03;1.73;;;;;;;;;;5103627;28;20639;-85
2022/06/14 10:21:45;;;;;;;1.13;0.50;;;;;;;;;;5114171;28;20034;-84
2022/06/14 10:24:41;;;;;;;0.90;0.55;;;;;;;;;;5095351;28;20106;-84
2022/06/14 10:30:37;;;;;;;2.50;0.93;;;;;;;;;;5111110;28;20120;-84
2022/06/14 10:33:39;;;;;;;0.60;0.40;;;;;;;;;;5096360;28;20047;-84
2022/06/14 10:36:17;;;;;;;0.80;0.80;;;;;;;;;;5098040;28;20032;-83
2022/06/14 10:39:16;;;;;;;0.47;0.47;;;;;;;;;;5095114;28;20040;-84
2022/06/14 10:41:49;;;;;;;1.13;1.05;;;;;;;;;;5108372;28;20107;-89
2022/06/14 10:44:26;;;;;;;1.25;0.57;;;;;;;;;;5099991;28;20092;-84
2022/06/14 10:47:23;;;;;;;0.63;0.63;;;;;;;;;;5099607;28;20109;-85
2022/06/14 10:50:00;;;;;;;0.98;0.90;;;;;;;;;;5116467;28;20047;-86
2022/06/14 10:52:53;;;;;;;1.52;0.70;;;;;;;;;;5112357;28;20028;-85
2022/06/14 10:55:38;;;;;;;0.85;0.85;;;;;;;;;;5114186;28;20037;-81
2022/06/14 10:58:22;;;;;;;2.15;0.93;;;;;;;;;;5075640;28;20035;-82
2022/06/14 11:01:17;;;;;;;4.43;0.90;;;;;;;;;;5103538;28;20068;-80
2022/06/14 11:04:03;;;;;;;0.40;0.40;;;;;;;;;;5099834;28;20027;-83
2022/06/14 11:06:56;;;;;;;1.65;0.70;;;;;;;;;;5095267;28;20031;-83
2022/06/14 11:09:21;;;;;;;0.93;0.93;;;;;;;;;;5112442;28;20095;-83
2022/06/14 11:12:02;;;;;;;0.95;0.82;;;;;;;;;;5112262;28;20118;-82
2022/06/14 11:14:47;;;;;;;0.57;0.57;;;;;;;;;;5108951;28;20112;-84
2022/06/14 11:17:21;;;;;;;0.55;0.55;;;;;;;;;;5111819;28;20027;-84
2022/06/14 11:19:53;;;;;;;1.88;1.00;;;;;;;;;;5114509;28;20044;-83
2022/06/14 11:22:40;;;;;;;2.08;0.60;;;;;;;;;;5094415;28;20036;-82
2022/06/14 11:25:34;;;;;;;1.65;1.08;;;;;;;;;;5077710;28;20028;-86
2022/06/14 11:28:17;;;;;;;0.43;0.43;;;;;;;;;;5096665;28;20456;-84
2022/06/14 11:31:07;;;;;;;0.85;0.85;;;;;;;;;;5104233;28;20360;-84
2022/06/14 11:33:58;;;;;;;0.40;0.40;;;;;;;;;;5116218;28;20039;-84
2022/06/14 11:36:59;;;;;;;2.15;1.58;;;;;;;;;;5108514;28;20460;-83
2022/06/14 11:39:31;;;;;;;0.40;0.40;;;;;;;;;;5047981;28;20089;-85
2022/06/14 11:42:02;;;;;;;3.28;0.80;;;;;;;;;;5101794;27;20625;-84
2022/06/14 11:44:42;;;;;;;0.57;0.50;;;;;;;;;;5099131;28;20348;-84
2022/06/14 11:47:07;;;;;;;1.48;1.00;;;;;;;;;;5105122;28;20027;-83
2022/06/14 11:49:48;;;;;;;1.13;0.77;;;;;;;;;;5114625;28;20106;-84
2022/06/14 11:52:19;;;;;;;0.63;0.60;;;;;;;;;;5090705;28;20328;-84
2022/06/14 11:55:06;;;;;;;0.57;0.57;;;;;;;;;;5111645;28;20036;-83
2022/06/14 11:57:49;;;;;;;0.68;0.50;;;;;;;;;;5113715;28;20356;-85
2022/06/14 12:00:23;;;;;;;0.88;0.68;;;;;;;;;;5101712;28;20083;-84
2022/06/14 12:02:48;;;;;;;0.57;0.57;;;;;;;;;;5111773;28;20038;-81
2022/06/14 12:05:29;;;;;;;0.40;0.40;;;;;;;;;;5106606;28;20118;-84
2022/06/14 12:08:02;;;;;;;2.05;0.95;;;;;;;;;;5114211;28;20282;-86
2022/06/14 12:10:44;;;;;;;0.50;0.50;;;;;;;;;;5098634;28;20041;-85
2022/06/14 12:13:42;;;;;;;1.02;0.60;;;;;;;;;;5098982;28;20401;-84
2022/06/14 12:16:18;;;;;;;2.40;0.60;;;;;;;;;;5111111;28;20115;-83
2022/06/14 12:19:10;;;;;;;0.77;0.60;;;;;;;;;;5069545;28;20650;-86
2022/06/14 12:22:28;;;;;;;0.45;0.45;;;;;;;;;;5112352;28;20027;-84
2022/06/14 12:27:44;;;;;;;0.43;0.43;;;;;;;;;;5097719;28;20384;-84
2022/06/14 12:30:12;;;;;;;0.43;0.43;;;;;;;;;;5113423;28;20059;-83
2022/06/14 12:32:49;;;;;;;1.30;0.65;;;;;;;;;;5097479;28;20470;-82
2022/06/14 12:35:18;;;;;;;0.55;0.55;;;;;;;;;;5096154;28;20034;-83
2022/06/14 12:37:55;;;;;;;1.48;1.10;;;;;;;;;;5064520;28;20048;-83
2022/06/14 12:40:30;;;;;;;2.88;0.90;;;;;;;;;;5093454;28;20024;-83
2022/06/14 12:42:58;;;;;;;1.42;0.93;;;;;;;;;;5097245;28;20043;-83
2022/06/14 12:45:29;;;;;;;0.85;0.50;;;;;;;;;;5096977;28;20322;-80
2022/06/14 12:48:05;;;;;;;1.00;0.90;;;;;;;;;;5114720;28;20594;-83
2022/06/14 12:50:37;;;;;;;0.70;0.60;;;;;;;;;;5115619;28;20045;-82
2022/06/14 12:53:22;;;;;;;0.73;0.73;;;;;;;;;;5097998;28;20027;-80
2022/06/14 12:55:53;;;;;;;1.00;0.93;;;;;;;;;;5097921;28;20034;-82
2022/06/14 12:58:21;;;;;;;0.50;0.50;;;;;;;;;;5114911;28;20436;-82
2022/06/14 13:00:46;;;;;;;0.60;0.60;;;;;;;;;;5115212;28;20042;-82
2022/06/14 13:03:29;;;;;;;2.37;0.83;;;;;;;;;;5097558;28;20011;-82
2022/06/14 13:06:16;;;;;;;0.80;0.80;;;;;;;;;;5109536;28;20292;-83
2022/06/14 13:08:54;;;;;;;0.82;0.68;;;;;;;;;;5115258;28;20409;-82
2022/06/14 13:11:38;;;;;;;0.82;0.80;;;;;;;;;;5097237;28;20050;-80
2022/06/14 13:14:59;;;;;;;0.68;0.63;;;;;;;;;;5096008;28;20019;-84
2022/06/14 13:17:33;;;;;;;0.73;0.73;;;;;;;;;;5065095;28;20047;-81
2022/06/14 13:20:01;;;;;;;3.60;0.98;;;;;;;;;;5114793;28;20371;-83
2022/06/14 13:23:03;;;;;;;0.88;0.70;;;;;;;;;;5093803;28;20028;-82
2022/06/14 13:25:39;;;;;;;0.40;0.40;;;;;;;;;;5110151;28;20357;-82
2022/06/14 13:28:23;;;;;;;0.55;0.50;;;;;;;;;;5097768;28;20046;-81
2022/06/14 13:31:27;;;;;;;0.90;0.73;;;;;;;;;;5112915;28;20023;-83
2022/06/14 13:34:29;;;;;;;0.65;0.65;;;;;;;;;;5113629;28;20340;-82
2022/06/14 13:37:05;;;;;;;0.90;0.90;;;;;;;;;;5107520;28;20028;-82
2022/06/14 13:39:38;;;;;;;3.45;2.40;;;;;;;;;;5106402;28;20122;-83
2022/06/14 13:42:23;;;;;;;4.10;2.47;;;;;;;;;;5096901;28;20036;-82
2022/06/14 13:45:08;;;;;;;2.67;1.05;;;;;;;;;;5116013;28;20376;-81
2022/06/14 13:47:40;;;;;;;0.82;0.82;;;;;;;;;;5094379;28;20034;-81
2022/06/14 13:50:17;;;;;;;1.98;0.47;;;;;;;;;;5111403;28;20076;-82
2022/06/14 13:52:55;;;;;;;1.35;0.70;;;;;;;;;;5087458;28;20024;-81
2022/06/14 13:55:28;;;;;;;0.30;0.30;;;;;;;;;;5111016;28;20352;-82
2022/06/14 13:58:07;;;;;;;1.33;0.85;;;;;;;;;;5096990;28;20019;-83
2022/06/14 14:00:44;;;;;;;1.10;0.65;;;;;;;;;;5095809;28;20059;-82
2022/06/14 14:03:30;;;;;;;1.52;0.60;;;;;;;;;;5114029;28;20356;-81
2022/06/14 14:06:11;;;;;;;0.50;0.50;;;;;;;;;;5112807;28;20054;-84
2022/06/14 14:08:57;;;;;;;0.73;0.47;;;;;;;;;;5105378;28;20036;-81
2022/06/14 14:11:33;;;;;;;0.30;0.30;;;;;;;;;;5071971;28;20024;-80
2022/06/14 14:14:07;;;;;;;0.73;0.57;;;;;;;;;;5094674;28;20028;-82
2022/06/14 14:16:41;;;;;;;0.43;0.38;;;;;;;;;;5096078;28;20364;-82
2022/06/14 14:19:50;;;;;;;0.60;0.60;;;;;;;;;;5079245;28;20088;-81
2022/06/14 14:22:49;;;;;;;2.13;1.05;;;;;;;;;;4980592;28;20108;-81
2022/06/14 14:25:21;;;;;;;0.60;0.60;;;;;;;;;;5059286;28;20503;-82
2022/06/14 14:27:54;;;;;;;2.28;1.65;;;;;;;;;;5086013;28;20043;-81
2022/06/14 14:30:27;;;;;;;0.50;0.50;;;;;;;;;;5115956;28;20023;-81
2022/06/14 14:33:01;;;;;;;0.20;0.20;;;;;;;;;;5117798;28;20028;-81
2022/06/14 14:35:35;;;;;;;0.90;0.80;;;;;;;;;;5102800;28;20023;-81
2022/06/14 14:38:43;;;;;;;1.08;0.85;;;;;;;;;;5116992;28;20027;-82
2022/06/14 14:41:33;;;;;;;0.45;0.45;;;;;;;;;;5035552;28;20033;-82
2022/06/14 14:44:08;;;;;;;0.47;0.47;;;;;;;;;;5015673;28;20022;-82
2022/06/14 14:46:35;;;;;;;1.30;0.55;;;;;;;;;;5029792;28;20449;-82
2022/06/14 14:49:06;;;;;;;0.32;0.32;;;;;;;;;;5013095;28;20128;-81
2022/06/14 14:51:38;;;;;;;0.60;0.60;;;;;;;;;;5034844;28;20048;-82
2022/06/14 14:54:17;;;;;;;0.47;0.47;;;;;;;;;;5019246;28;20064;-81
2022/06/14 14:56:54;;;;;;;0.77;0.73;;;;;;;;;;5032921;28;20041;-83
2022/06/14 14:59:43;;;;;;;0.50;0.50;;;;;;;;;;5034944;28;20034;-83
2022/06/14 15:05:43;;;;;;;0.82;0.40;;;;;;;;;;5020035;28;20098;-83
2022/06/14 15:08:34;;;;;;;1.35;0.98;;;;;;;;;;5023671;28;20049;-82
2022/06/14 15:11:05;;;;;;;1.00;0.50;;;;;;;;;;5020172;28;20035;-83
2022/06/14 15:13:43;;;;;;;0.68;0.65;;;;;;;;;;5111212;28;20027;-83
2022/06/14 15:16:23;;;;;;;0.57;0.45;;;;;;;;;;5117541;28;20318;-83
2022/06/14 15:21:43;;;;;;;0.55;0.55;;;;;;;;;;5087721;28;20057;-86
2022/06/14 15:24:30;;;;;;;0.75;0.60;;;;;;;;;;5109015;28;20076;-84
2022/06/14 15:27:05;;;;;;;0.45;0.45;;;;;;;;;;5097118;28;20359;-82
2022/06/14 15:29:35;;;;;;;0.35;0.35;;;;;;;;;;5114093;28;20053;-82
2022/06/14 15:32:23;;;;;;;0.30;0.30;;;;;;;;;;5080718;28;20042;-84
2022/06/14 15:34:50;;;;;;;5.40;0.60;;;;;;;;;;5033145;28;20382;-82
2022/06/14 15:37:30;;;;;;;2.50;0.80;;;;;;;;;;5009903;28;20029;-85
2022/06/14 15:39:57;;;;;;;15.75;8.18;;;;;;;;;;5028333;28;20111;-82
2022/06/14 15:42:59;;;;;;;1.40;1.10;;;;;;;;;;5016127;28;20029;-85
2022/06/14 15:45:30;;;;;;;7.70;0.83;;;;;;;;;;5002721;28;20087;-82
2022/06/14 15:48:08;;;;;;;8.18;1.08;;;;;;;;;;5016292;28;20033;-82
2022/06/14 15:50:42;;;;;;;0.90;0.47;;;;;;;;;;5013321;28;20478;-81
2022/06/14 15:53:28;;;;;;;0.70;0.70;;;;;;;;;;5031382;28;20360;-82
2022/06/14 15:55:55;;;;;;;1.23;0.70;;;;;;;;;;4997603;28;20051;-81
2022/06/14 15:58:29;;;;;;;3.03;0.52;;;;;;;;;;5008445;28;20038;-82
2022/06/14 16:01:31;;;;;;;0.30;0.22;;;;;;;;;;5032881;28;20029;-82
2022/06/14 16:04:02;;;;;;;6.93;0.52;;;;;;;;;;5030799;28;20373;-83
2022/06/14 16:06:34;;;;;;;4.30;2.10;;;;;;;;;;5032354;28;20088;-84
2022/06/14 16:09:13;;;;;;;1.23;0.90;;;;;;;;;;5032982;28;20388;-83
2022/06/14 16:11:50;;;;;;;0.90;0.52;;;;;;;;;;5056694;28;20040;-83